Heron Lake, MN

4:32 PM CST on December 28, 2014 (GMT -0600)
Worthington Municipal | Change Station
CLOSE
Current Station
Airport
Location: Worthington,
Elevation: 1575 ft
Nearby Weather Stations

Elev 1575 ft 43.66 °N, 95.58 °W | Updated 17 minutes ago

Overcast
Overcast
18 °F
Feels Like 4 °F
N
13
Wind Variable Wind from NNE

Today
High -- | Low -- °F
--% Chance of Precip.
Yesterday
High -- | Low -- °F
Precip. -- in
7:54 AM 4:51 PM
First Quarter, 52% visible
Pressure 30.16 in
Visibility 4.0 miles
Clouds Overcast 400 ft
Windchill 4 °F
Dew Point -26 °F
Humidity 13%
Rainfall 0.00 in
Snow Depth Not available.
UV 0 out of 12
Pollen .10 out of 12
Air Quality Not available.
Flu Activity Not available.
METAR KOTG 282215Z AUTO 03011KT 4SM OVC004 M08/M32 A3016 RMK AO1

More Conditions Fewer Conditions

Pressure 30.16 in
Visibility 4.0 miles
Clouds Overcast 400 ft
Windchill 4 °F
Dew Point -26 °F
Humidity 13%
Rainfall 0.00 in
Snow Depth Not available.
UV 0 out of 12
Pollen .10 out of 12
Air Quality Not available.
Flu Activity Not available.
METAR KOTG 282215Z AUTO 03011KT 4SM OVC004 M08/M32 A3016 RMK AO1

More Conditions Fewer Conditions

10-Day Weather Forecast

Almanac

Astronomy

Dec. 28, 2014 Rise Set
Actual Time
Civil Twilight
Nautical Twilight
Astronomical Twilight
Moon
Length of Visible Light
Length of Day
Tomorrow will be .
, % of the Moon is Illuminated

Today's Extremes

State Highs State Lows

Community

WunderPhotos

Upload Photos

1,781,448 photos uploaded!

WunderBlogs® & News

Nearby

Air Quality

  Air Quality AQ Index Pollutant
Not available.

Snow Depth

Station Depth Elevation

Earthquake Activity

City Distance Mag. Time & Date
Minimum magnitude displayed is 2.5.

Coastal Water Temperatures

Place Temperature

Nearby Weather Stations